sensor_id;sensor_type;location;lat;lon;timestamp;pressure;altitude;pressure_sealevel;temperature;humidity
55113;BME280;41006;50.920;3.456;2022-09-09T00:00:14;100485.84;;;17.03;99.05
55113;BME280;41006;50.920;3.456;2022-09-09T00:02:44;100489.03;;;17.11;100.00
55113;BME280;41006;50.920;3.456;2022-09-09T00:03:23;100486.06;;;17.17;99.69
55113;BME280;41006;50.920;3.456;2022-09-09T00:04:45;100479.63;;;17.22;99.28
55113;BME280;41006;50.920;3.456;2022-09-09T00:05:58;100485.03;;;17.20;98.79
55113;BME280;41006;50.920;3.456;2022-09-09T00:06:30;100489.06;;;17.30;98.70
55113;BME280;41006;50.920;3.456;2022-09-09T00:07:41;100484.53;;;17.12;98.61
55113;BME280;41006;50.920;3.456;2022-09-09T00:08:18;100486.56;;;17.07;99.21
55113;BME280;41006;50.920;3.456;2022-09-09T00:09:21;100476.47;;;16.93;99.62
55113;BME280;41006;50.920;3.456;2022-09-09T00:10:13;100486.50;;;17.08;99.54
55113;BME280;41006;50.920;3.456;2022-09-09T00:10:46;100481.13;;;17.08;99.64
55113;BME280;41006;50.920;3.456;2022-09-09T00:11:37;100484.91;;;17.04;99.66
55113;BME280;41006;50.920;3.456;2022-09-09T00:12:12;100480.63;;;17.00;99.38
55113;BME280;41006;50.920;3.456;2022-09-09T00:12:51;100483.09;;;17.05;99.43
55113;BME280;41006;50.920;3.456;2022-09-09T00:13:29;100476.59;;;17.10;99.24
55113;BME280;41006;50.920;3.456;2022-09-09T00:14:03;100478.69;;;17.23;98.87
55113;BME280;41006;50.920;3.456;2022-09-09T00:14:47;100478.03;;;17.17;98.68
55113;BME280;41006;50.920;3.456;2022-09-09T00:15:21;100477.53;;;17.09;98.81
55113;BME280;41006;50.920;3.456;2022-09-09T00:16:00;100475.50;;;17.14;99.23
55113;BME280;41006;50.920;3.456;2022-09-09T00:16:35;100472.22;;;17.08;99.12
55113;BME280;41006;50.920;3.456;2022-09-09T00:17:14;100479.03;;;17.15;99.33
55113;BME280;41006;50.920;3.456;2022-09-09T00:17:52;100475.41;;;17.16;99.00
55113;BME280;41006;50.920;3.456;2022-09-09T00:19:27;100469.16;;;16.96;99.28
55113;BME280;41006;50.920;3.456;2022-09-09T00:20:35;100475.97;;;16.85;99.67
55113;BME280;41006;50.920;3.456;2022-09-09T00:21:52;100470.19;;;16.94;99.78
55113;BME280;41006;50.920;3.456;2022-09-09T00:22:28;100472.22;;;16.89;99.82
55113;BME280;41006;50.920;3.456;2022-09-09T00:23:42;100473.53;;;16.99;99.58
55113;BME280;41006;50.920;3.456;2022-09-09T00:24:19;100480.47;;;17.03;99.36
55113;BME280;41006;50.920;3.456;2022-09-09T00:24:54;100481.84;;;16.93;99.35
55113;BME280;41006;50.920;3.456;2022-09-09T00:25:29;100473.16;;;16.88;99.39
55113;BME280;41006;50.920;3.456;2022-09-09T00:26:48;100465.56;;;17.16;99.17
55113;BME280;41006;50.920;3.456;2022-09-09T00:27:26;100473.41;;;17.02;99.33
55113;BME280;41006;50.920;3.456;2022-09-09T00:27:59;100469.16;;;16.96;99.33
55113;BME280;41006;50.920;3.456;2022-09-09T00:28:31;100471.41;;;16.87;99.66
55113;BME280;41006;50.920;3.456;2022-09-09T00:30:43;100472.44;;;17.03;98.88
55113;BME280;41006;50.920;3.456;2022-09-09T00:31:23;100472.50;;;17.01;98.96
55113;BME280;41006;50.920;3.456;2022-09-09T00:32:07;100472.81;;;16.95;99.92
55113;BME280;41006;50.920;3.456;2022-09-09T00:32:41;100477.22;;;16.96;99.41
55113;BME280;41006;50.920;3.456;2022-09-09T00:33:16;100473.22;;;16.86;99.75
55113;BME280;41006;50.920;3.456;2022-09-09T00:33:48;100474.53;;;16.96;99.98
55113;BME280;41006;50.920;3.456;2022-09-09T00:34:23;100477.00;;;17.01;99.39
55113;BME280;41006;50.920;3.456;2022-09-09T00:34:56;100468.19;;;16.99;99.14
55113;BME280;41006;50.920;3.456;2022-09-09T00:35:27;100473.53;;;16.99;99.15
55113;BME280;41006;50.920;3.456;2022-09-09T00:36:01;100471.25;;;16.90;99.08
55113;BME280;41006;50.920;3.456;2022-09-09T00:36:32;100471.13;;;16.93;99.48
55113;BME280;41006;50.920;3.456;2022-09-09T00:37:04;100465.34;;;17.02;99.32
55113;BME280;41006;50.920;3.456;2022-09-09T00:37:35;100468.03;;;17.02;99.06
55113;BME280;41006;50.920;3.456;2022-09-09T00:38:15;100465.19;;;17.05;99.26
55113;BME280;41006;50.920;3.456;2022-09-09T00:38:48;100461.19;;;16.95;100.00
55113;BME280;41006;50.920;3.456;2022-09-09T00:39:25;100469.03;;;16.99;100.00
55113;BME280;41006;50.920;3.456;2022-09-09T00:39:58;100462.38;;;16.89;99.52
55113;BME280;41006;50.920;3.456;2022-09-09T00:40:33;100453.78;;;16.81;99.84
55113;BME280;41006;50.920;3.456;2022-09-09T00:41:09;100458.97;;;16.86;99.78
55113;BME280;41006;50.920;3.456;2022-09-09T00:41:50;100462.16;;;16.73;99.87
55113;BME280;41006;50.920;3.456;2022-09-09T00:42:30;100458.47;;;16.76;100.00
55113;BME280;41006;50.920;3.456;2022-09-09T00:43:14;100458.53;;;16.74;99.76
55113;BME280;41006;50.920;3.456;2022-09-09T00:43:56;100450.91;;;16.86;99.77
55113;BME280;41006;50.920;3.456;2022-09-09T00:48:04;100447.16;;;16.90;99.68
55113;BME280;41006;50.920;3.456;2022-09-09T00:48:50;100449.09;;;16.86;99.29
55113;BME280;41006;50.920;3.456;2022-09-09T00:50:57;100444.84;;;17.01;98.78
55113;BME280;41006;50.920;3.456;2022-09-09T00:51:39;100437.53;;;16.86;99.13
55113;BME280;41006;50.920;3.456;2022-09-09T00:52:30;100446.34;;;16.88;99.16
55113;BME280;41006;50.920;3.456;2022-09-09T00:53:19;100438.84;;;16.75;99.64
55113;BME280;41006;50.920;3.456;2022-09-09T00:54:44;100450.47;;;16.95;98.93
55113;BME280;41006;50.920;3.456;2022-09-09T00:56:01;100447.94;;;16.92;98.77
55113;BME280;41006;50.920;3.456;2022-09-09T00:56:38;100449.56;;;16.96;98.21
55113;BME280;41006;50.920;3.456;2022-09-09T00:57:14;100443.47;;;16.92;98.71
55113;BME280;41006;50.920;3.456;2022-09-09T00:57:46;100438.31;;;16.88;98.65
55113;BME280;41006;50.920;3.456;2022-09-09T00:58:21;100442.56;;;16.92;98.43
55113;BME280;41006;50.920;3.456;2022-09-09T00:59:32;100436.88;;;16.99;98.36
55113;BME280;41006;50.920;3.456;2022-09-09T01:01:02;100437.88;;;16.97;97.85
55113;BME280;41006;50.920;3.456;2022-09-09T01:01:36;100436.28;;;17.12;97.88
55113;BME280;41006;50.920;3.456;2022-09-09T01:03:54;100431.94;;;17.09;97.07
55113;BME280;41006;50.920;3.456;2022-09-09T01:04:29;100433.53;;;17.13;96.96
55113;BME280;41006;50.920;3.456;2022-09-09T01:05:07;100430.19;;;17.08;96.83
55113;BME280;41006;50.920;3.456;2022-09-09T01:06:48;100432.47;;;17.17;97.07
55113;BME280;41006;50.920;3.456;2022-09-09T01:07:16;100429.75;;;16.98;97.13
55113;BME280;41006;50.920;3.456;2022-09-09T01:07:47;100426.00;;;17.02;97.35
55113;BME280;41006;50.920;3.456;2022-09-09T01:08:29;100424.97;;;17.05;97.22
55113;BME280;41006;50.920;3.456;2022-09-09T01:10:30;100426.00;;;17.02;97.37
55113;BME280;41006;50.920;3.456;2022-09-09T01:11:07;100423.13;;;17.07;97.09
55113;BME280;41006;50.920;3.456;2022-09-09T01:12:16;100415.59;;;17.15;96.66
55113;BME280;41006;50.920;3.456;2022-09-09T01:12:47;100421.06;;;16.93;96.98
55113;BME280;41006;50.920;3.456;2022-09-09T01:13:22;100420.59;;;17.04;97.09
55113;BME280;41006;50.920;3.456;2022-09-09T01:14:00;100419.06;;;17.17;96.44
55113;BME280;41006;50.920;3.456;2022-09-09T01:15:10;100422.47;;;17.02;96.64
55113;BME280;41006;50.920;3.456;2022-09-09T01:15:44;100416.44;;;16.97;96.79
55113;BME280;41006;50.920;3.456;2022-09-09T01:16:16;100407.81;;;16.90;97.27
55113;BME280;41006;50.920;3.456;2022-09-09T01:16:47;100413.31;;;17.06;97.05
55113;BME280;41006;50.920;3.456;2022-09-09T01:17:24;100406.28;;;16.85;97.53
55113;BME280;41006;50.920;3.456;2022-09-09T01:18:08;100412.38;;;16.88;97.65
55113;BME280;41006;50.920;3.456;2022-09-09T01:18:42;100411.06;;;16.97;97.34
55113;BME280;41006;50.920;3.456;2022-09-09T01:19:18;100412.56;;;16.83;97.50
55113;BME280;41006;50.920;3.456;2022-09-09T01:20:53;100408.22;;;16.81;98.21
55113;BME280;41006;50.920;3.456;2022-09-09T01:22:03;100404.63;;;17.01;97.39
55113;BME280;41006;50.920;3.456;2022-09-09T01:24:46;100402.16;;;16.96;97.81
55113;BME280;41006;50.920;3.456;2022-09-09T01:26:46;100400.94;;;16.85;97.86
55113;BME280;41006;50.920;3.456;2022-09-09T01:27:19;100404.50;;;16.83;97.69
55113;BME280;41006;50.920;3.456;2022-09-09T01:27:52;100396.44;;;16.85;98.09
55113;BME280;41006;50.920;3.456;2022-09-09T01:28:25;100400.59;;;16.92;97.82
55113;BME280;41006;50.920;3.456;2022-09-09T01:28:59;100397.19;;;16.89;97.61
55113;BME280;41006;50.920;3.456;2022-09-09T01:29:29;100402.25;;;16.95;98.42
55113;BME280;41006;50.920;3.456;2022-09-09T01:29:59;100398.78;;;16.93;97.96
55113;BME280;41006;50.920;3.456;2022-09-09T01:30:32;100400.53;;;16.94;97.59
55113;BME280;41006;50.920;3.456;2022-09-09T01:31:05;100400.66;;;16.91;97.47
55113;BME280;41006;50.920;3.456;2022-09-09T01:31:41;100395.16;;;16.94;97.57
55113;BME280;41006;50.920;3.456;2022-09-09T01:33:00;100396.75;;;16.98;97.12
55113;BME280;41006;50.920;3.456;2022-09-09T01:33:31;100397.09;;;17.09;96.74
55113;BME280;41006;50.920;3.456;2022-09-09T01:34:04;100392.03;;;17.03;97.10
55113;BME280;41006;50.920;3.456;2022-09-09T01:34:40;100391.88;;;17.06;97.82
55113;BME280;41006;50.920;3.456;2022-09-09T01:35:13;100406.91;;;17.10;96.90
55113;BME280;41006;50.920;3.456;2022-09-09T01:36:46;100402.97;;;17.17;96.23
55113;BME280;41006;50.920;3.456;2022-09-09T01:37:21;100399.31;;;17.18;96.56
55113;BME280;41006;50.920;3.456;2022-09-09T01:37:57;100399.91;;;17.25;96.41
55113;BME280;41006;50.920;3.456;2022-09-09T01:38:27;100396.50;;;17.22;96.49
55113;BME280;41006;50.920;3.456;2022-09-09T01:39:01;100402.47;;;17.09;96.53
55113;BME280;41006;50.920;3.456;2022-09-09T01:39:37;100395.00;;;16.97;97.27
55113;BME280;41006;50.920;3.456;2022-09-09T01:40:13;100405.72;;;16.97;97.12
55113;BME280;41006;50.920;3.456;2022-09-09T01:40:48;100399.22;;;17.02;97.19
55113;BME280;41006;50.920;3.456;2022-09-09T01:41:21;100403.72;;;17.02;97.80
55113;BME280;41006;50.920;3.456;2022-09-09T01:41:54;100397.09;;;17.09;97.33
55113;BME280;41006;50.920;3.456;2022-09-09T01:42:25;100401.66;;;17.26;96.97
55113;BME280;41006;50.920;3.456;2022-09-09T01:42:57;100407.44;;;17.36;96.46
55113;BME280;41006;50.920;3.456;2022-09-09T01:43:28;100405.53;;;17.38;95.95
55113;BME280;41006;50.920;3.456;2022-09-09T01:43:58;100403.25;;;17.30;95.86
55113;BME280;41006;50.920;3.456;2022-09-09T01:44:29;100408.16;;;17.39;95.85
55113;BME280;41006;50.920;3.456;2022-09-09T01:45:02;100396.72;;;17.36;95.86
55113;BME280;41006;50.920;3.456;2022-09-09T01:45:35;100399.25;;;17.20;96.96
55113;BME280;41006;50.920;3.456;2022-09-09T01:46:09;100393.53;;;17.28;96.54
55113;BME280;41006;50.920;3.456;2022-09-09T01:46:40;100403.91;;;17.16;96.48
55113;BME280;41006;50.920;3.456;2022-09-09T01:47:11;100399.28;;;17.01;96.63
55113;BME280;41006;50.920;3.456;2022-09-09T01:47:41;100407.53;;;16.96;97.71
55113;BME280;41006;50.920;3.456;2022-09-09T01:48:11;100401.94;;;16.82;98.46
55113;BME280;41006;50.920;3.456;2022-09-09T01:48:46;100401.84;;;16.83;98.16
55113;BME280;41006;50.920;3.456;2022-09-09T01:49:17;100402.09;;;16.98;98.12
55113;BME280;41006;50.920;3.456;2022-09-09T01:49:49;100400.22;;;17.00;97.91
55113;BME280;41006;50.920;3.456;2022-09-09T01:50:23;100399.94;;;17.06;97.57
55113;BME280;41006;50.920;3.456;2022-09-09T01:50:53;100402.25;;;16.95;97.60
55113;BME280;41006;50.920;3.456;2022-09-09T01:51:24;100407.31;;;17.01;97.36
55113;BME280;41006;50.920;3.456;2022-09-09T01:51:56;100405.28;;;17.06;97.29
55113;BME280;41006;50.920;3.456;2022-09-09T01:52:27;100404.03;;;17.13;97.20
55113;BME280;41006;50.920;3.456;2022-09-09T01:52:58;100402.69;;;17.05;96.63
55113;BME280;41006;50.920;3.456;2022-09-09T01:53:28;100408.34;;;17.17;96.92
55113;BME280;41006;50.920;3.456;2022-09-09T01:53:59;100403.25;;;17.11;97.06
55113;BME280;41006;50.920;3.456;2022-09-09T01:54:34;100403.91;;;17.16;97.18
55113;BME280;41006;50.920;3.456;2022-09-09T01:55:05;100405.00;;;17.12;96.98
55113;BME280;41006;50.920;3.456;2022-09-09T01:55:39;100408.75;;;17.08;97.39
55113;BME280;41006;50.920;3.456;2022-09-09T01:57:26;100405.88;;;17.13;97.11
55113;BME280;41006;50.920;3.456;2022-09-09T01:59:03;100402.38;;;16.92;97.94
55113;BME280;41006;50.920;3.456;2022-09-09T02:00:11;100405.22;;;16.89;98.38
55113;BME280;41006;50.920;3.456;2022-09-09T02:00:44;100402.72;;;16.84;98.65
55113;BME280;41006;50.920;3.456;2022-09-09T02:01:35;100398.38;;;16.81;98.84
55113;BME280;41006;50.920;3.456;2022-09-09T02:02:19;100394.25;;;16.74;99.23
55113;BME280;41006;50.920;3.456;2022-09-09T02:03:00;100404.41;;;16.87;98.94
55113;BME280;41006;50.920;3.456;2022-09-09T02:03:31;100397.56;;;16.79;99.26
55113;BME280;41006;50.920;3.456;2022-09-09T02:04:13;100395.69;;;16.81;99.02
55113;BME280;41006;50.920;3.456;2022-09-09T02:05:51;100401.59;;;16.90;99.11
55113;BME280;41006;50.920;3.456;2022-09-09T02:06:34;100397.56;;;16.79;98.93
55113;BME280;41006;50.920;3.456;2022-09-09T02:07:14;100394.69;;;16.84;99.27
55113;BME280;41006;50.920;3.456;2022-09-09T02:07:49;100394.66;;;16.86;98.95
55113;BME280;41006;50.920;3.456;2022-09-09T02:08:21;100392.94;;;16.83;98.89
55113;BME280;41006;50.920;3.456;2022-09-09T02:08:56;100400.25;;;16.79;99.13
55113;BME280;41006;50.920;3.456;2022-09-09T02:09:29;100402.94;;;16.79;99.17
55113;BME280;41006;50.920;3.456;2022-09-09T02:10:11;100399.16;;;16.83;99.15
55113;BME280;41006;50.920;3.456;2022-09-09T02:10:46;100403.84;;;16.78;99.04
55113;BME280;41006;50.920;3.456;2022-09-09T02:11:24;100398.78;;;16.93;99.30
55113;BME280;41006;50.920;3.456;2022-09-09T02:12:00;100397.38;;;16.84;98.92
55113;BME280;41006;50.920;3.456;2022-09-09T02:12:32;100397.53;;;17.00;98.73
55113;BME280;41006;50.920;3.456;2022-09-09T02:13:07;100399.06;;;16.87;98.89
55113;BME280;41006;50.920;3.456;2022-09-09T02:13:39;100398.19;;;16.86;99.14
55113;BME280;41006;50.920;3.456;2022-09-09T02:14:10;100390.94;;;16.88;98.96
55113;BME280;41006;50.920;3.456;2022-09-09T02:14:46;100391.09;;;17.04;98.96
55113;BME280;41006;50.920;3.456;2022-09-09T02:15:22;100400.84;;;17.05;98.19
55113;BME280;41006;50.920;3.456;2022-09-09T02:16:40;100395.28;;;17.10;98.43
55113;BME280;41006;50.920;3.456;2022-09-09T02:17:13;100391.09;;;17.04;98.54
55113;BME280;41006;50.920;3.456;2022-09-09T02:17:45;100390.81;;;17.10;98.29
55113;BME280;41006;50.920;3.456;2022-09-09T02:18:17;100394.84;;;17.19;97.89
55113;BME280;41006;50.920;3.456;2022-09-09T02:19:37;100395.84;;;17.16;98.19
55113;BME280;41006;50.920;3.456;2022-09-09T02:20:12;100396.22;;;17.28;97.79
55113;BME280;41006;50.920;3.456;2022-09-09T02:20:44;100397.03;;;17.11;97.93
55113;BME280;41006;50.920;3.456;2022-09-09T02:21:17;100397.19;;;17.08;98.36
55113;BME280;41006;50.920;3.456;2022-09-09T02:21:48;100387.31;;;17.08;98.34
55113;BME280;41006;50.920;3.456;2022-09-09T02:22:19;100392.69;;;17.08;98.44
55113;BME280;41006;50.920;3.456;2022-09-09T02:22:53;100399.56;;;17.14;97.82
55113;BME280;41006;50.920;3.456;2022-09-09T02:23:26;100397.47;;;17.01;98.37
55113;BME280;41006;50.920;3.456;2022-09-09T02:23:58;100393.56;;;17.09;98.25
55113;BME280;41006;50.920;3.456;2022-09-09T02:24:32;100394.28;;;17.12;98.22
55113;BME280;41006;50.920;3.456;2022-09-09T02:25:03;100404.56;;;17.22;98.10
55113;BME280;41006;50.920;3.456;2022-09-09T02:25:37;100392.53;;;17.11;97.66
55113;BME280;41006;50.920;3.456;2022-09-09T02:26:07;100399.06;;;17.06;97.92
55113;BME280;41006;50.920;3.456;2022-09-09T02:26:42;100406.91;;;17.10;97.99
55113;BME280;41006;50.920;3.456;2022-09-09T02:27:15;100400.06;;;17.03;98.25
55113;BME280;41006;50.920;3.456;2022-09-09T02:27:47;100394.84;;;17.00;98.43
55113;BME280;41006;50.920;3.456;2022-09-09T02:28:20;100398.19;;;17.05;98.30
55113;BME280;41006;50.920;3.456;2022-09-09T02:28:52;100399.78;;;17.09;98.46
55113;BME280;41006;50.920;3.456;2022-09-09T02:29:30;100399.22;;;17.02;98.33
55113;BME280;41006;50.920;3.456;2022-09-09T02:30:04;100398.84;;;16.91;98.80
55113;BME280;41006;50.920;3.456;2022-09-09T02:30:35;100398.84;;;16.91;98.88
55113;BME280;41006;50.920;3.456;2022-09-09T02:31:08;100395.16;;;16.94;99.15
55113;BME280;41006;50.920;3.456;2022-09-09T02:31:44;100398.50;;;16.99;98.81
55113;BME280;41006;50.920;3.456;2022-09-09T02:32:18;100397.91;;;16.92;98.92
55113;BME280;41006;50.920;3.456;2022-09-09T02:32:50;100394.06;;;16.98;98.66
55113;BME280;41006;50.920;3.456;2022-09-09T02:33:23;100402.16;;;16.96;98.99
55113;BME280;41006;50.920;3.456;2022-09-09T02:33:55;100396.19;;;17.10;98.68
55113;BME280;41006;50.920;3.456;2022-09-09T02:34:27;100401.22;;;17.16;98.34
55113;BME280;41006;50.920;3.456;2022-09-09T02:35:05;100399.50;;;17.15;98.17
55113;BME280;41006;50.920;3.456;2022-09-09T02:35:37;100396.59;;;17.01;98.08
55113;BME280;41006;50.920;3.456;2022-09-09T02:36:08;100397.03;;;17.11;98.41
55113;BME280;41006;50.920;3.456;2022-09-09T02:36:40;100401.09;;;17.00;98.89
55113;BME280;41006;50.920;3.456;2022-09-09T02:37:13;100398.84;;;17.10;98.42
55113;BME280;41006;50.920;3.456;2022-09-09T02:37:45;100397.31;;;17.05;98.13
55113;BME280;41006;50.920;3.456;2022-09-09T02:38:20;100392.03;;;17.03;98.13
55113;BME280;41006;50.920;3.456;2022-09-09T02:38:52;100398.63;;;16.96;98.37
55113;BME280;41006;50.920;3.456;2022-09-09T02:39:25;100392.75;;;16.88;99.05
55113;BME280;41006;50.920;3.456;2022-09-09T02:39:58;100393.13;;;16.99;99.01
55113;BME280;41006;50.920;3.456;2022-09-09T02:40:28;100396.22;;;16.90;99.11
55113;BME280;41006;50.920;3.456;2022-09-09T02:41:01;100389.94;;;16.91;99.03
55113;BME280;41006;50.920;3.456;2022-09-09T02:41:37;100396.75;;;16.98;98.50
55113;BME280;41006;50.920;3.456;2022-09-09T02:42:07;100396.47;;;17.04;98.41
55113;BME280;41006;50.920;3.456;2022-09-09T02:42:41;100385.59;;;16.88;98.38
55113;BME280;41006;50.920;3.456;2022-09-09T02:43:13;100395.09;;;16.95;98.48
55113;BME280;41006;50.920;3.456;2022-09-09T02:43:46;100391.03;;;17.06;98.07
55113;BME280;41006;50.920;3.456;2022-09-09T02:44:18;100400.44;;;16.95;98.38
55113;BME280;41006;50.920;3.456;2022-09-09T02:44:49;100397.38;;;17.03;98.43
55113;BME280;41006;50.920;3.456;2022-09-09T02:45:23;100392.25;;;16.98;98.53
55113;BME280;41006;50.920;3.456;2022-09-09T02:46:02;100394.50;;;17.08;98.14
55113;BME280;41006;50.920;3.456;2022-09-09T02:46:36;100399.56;;;16.95;98.64
55113;BME280;41006;50.920;3.456;2022-09-09T02:48:00;100403.41;;;17.08;98.21
55113;BME280;41006;50.920;3.456;2022-09-09T02:50:19;100391.09;;;17.04;98.63
55113;BME280;41006;50.920;3.456;2022-09-09T02:51:44;100388.19;;;16.90;98.82
55113;BME280;41006;50.920;3.456;2022-09-09T02:52:26;100399.06;;;16.87;99.10
55113;BME280;41006;50.920;3.456;2022-09-09T02:53:07;100392.28;;;16.78;99.44
55113;BME280;41006;50.920;3.456;2022-09-09T02:53:44;100397.34;;;16.86;99.25
55113;BME280;41006;50.920;3.456;2022-09-09T02:54:50;100391.66;;;16.92;99.09
55113;BME280;41006;50.920;3.456;2022-09-09T02:55:29;100390.88;;;16.90;99.02
55113;BME280;41006;50.920;3.456;2022-09-09T02:56:11;100389.06;;;16.90;98.85
55113;BME280;41006;50.920;3.456;2022-09-09T02:56:53;100392.81;;;17.05;98.68
55113;BME280;41006;50.920;3.456;2022-09-09T02:57:26;100388.91;;;17.12;98.11
55113;BME280;41006;50.920;3.456;2022-09-09T02:58:00;100391.38;;;17.17;97.36
55113;BME280;41006;50.920;3.456;2022-09-09T02:58:38;100387.25;;;17.10;97.78
55113;BME280;41006;50.920;3.456;2022-09-09T02:59:09;100388.78;;;16.96;98.09
55113;BME280;41006;50.920;3.456;2022-09-09T02:59:40;100389.94;;;16.91;98.38
55113;BME280;41006;50.920;3.456;2022-09-09T03:00:15;100388.25;;;16.88;99.09
55113;BME280;41006;50.920;3.456;2022-09-09T03:00:46;100394.56;;;17.06;98.29
55113;BME280;41006;50.920;3.456;2022-09-09T03:01:17;100388.41;;;17.04;97.79
55113;BME280;41006;50.920;3.456;2022-09-09T03:01:52;100394.56;;;17.06;98.01
55113;BME280;41006;50.920;3.456;2022-09-09T03:02:25;100398.34;;;17.02;98.29
55113;BME280;41006;50.920;3.456;2022-09-09T03:02:58;100397.91;;;17.11;98.16
55113;BME280;41006;50.920;3.456;2022-09-09T03:03:31;100393.13;;;16.99;98.14
55113;BME280;41006;50.920;3.456;2022-09-09T03:04:02;100400.06;;;17.03;98.21
55113;BME280;41006;50.920;3.456;2022-09-09T03:04:35;100394.50;;;17.08;97.91
55113;BME280;41006;50.920;3.456;2022-09-09T03:05:07;100394.34;;;16.92;98.27
55113;BME280;41006;50.920;3.456;2022-09-09T03:05:38;100403.03;;;16.97;98.50
55113;BME280;41006;50.920;3.456;2022-09-09T03:06:11;100395.44;;;16.88;98.54
55113;BME280;41006;50.920;3.456;2022-09-09T03:06:44;100396.03;;;16.94;98.57
55113;BME280;41006;50.920;3.456;2022-09-09T03:07:14;100397.19;;;17.08;97.91
55113;BME280;41006;50.920;3.456;2022-09-09T03:07:45;100396.31;;;17.07;97.75
55113;BME280;41006;50.920;3.456;2022-09-09T03:08:21;100395.16;;;17.13;98.00
55113;BME280;41006;50.920;3.456;2022-09-09T03:08:52;100401.69;;;17.07;97.85
55113;BME280;41006;50.920;3.456;2022-09-09T03:09:22;100393.91;;;17.01;97.84
55113;BME280;41006;50.920;3.456;2022-09-09T03:09:53;100396.31;;;17.07;98.42
55113;BME280;41006;50.920;3.456;2022-09-09T03:10:24;100402.47;;;17.09;98.11
55113;BME280;41006;50.920;3.456;2022-09-09T03:10:55;100395.88;;;16.97;98.01
55113;BME280;41006;50.920;3.456;2022-09-09T03:11:26;100402.25;;;16.95;98.41
55113;BME280;41006;50.920;3.456;2022-09-09T03:11:59;100389.94;;;16.91;97.97
55113;BME280;41006;50.920;3.456;2022-09-09T03:12:34;100397.91;;;17.11;97.90
55113;BME280;41006;50.920;3.456;2022-09-09T03:13:05;100397.25;;;17.06;97.45
55113;BME280;41006;50.920;3.456;2022-09-09T03:13:37;100396.19;;;17.10;97.80
55113;BME280;41006;50.920;3.456;2022-09-09T03:14:08;100392.69;;;17.08;97.79
55113;BME280;41006;50.920;3.456;2022-09-09T03:14:42;100396.47;;;17.04;97.88
55113;BME280;41006;50.920;3.456;2022-09-09T03:15:15;100391.88;;;17.06;98.02
55113;BME280;41006;50.920;3.456;2022-09-09T03:15:51;100395.28;;;17.10;97.74
55113;BME280;41006;50.920;3.456;2022-09-09T03:16:24;100388.13;;;17.10;97.98
55113;BME280;41006;50.920;3.456;2022-09-09T03:16:57;100388.59;;;17.18;97.32
55113;BME280;41006;50.920;3.456;2022-09-09T03:17:30;100387.16;;;17.11;97.50
55113;BME280;41006;50.920;3.456;2022-09-09T03:18:01;100387.84;;;16.97;97.99
55113;BME280;41006;50.920;3.456;2022-09-09T03:18:33;100378.13;;;16.95;98.12
55113;BME280;41006;50.920;3.456;2022-09-09T03:19:06;100386.47;;;17.08;98.16
55113;BME280;41006;50.920;3.456;2022-09-09T03:19:37;100387.88;;;17.15;98.22
55113;BME280;41006;50.920;3.456;2022-09-09T03:20:07;100389.94;;;17.10;97.60
55113;BME280;41006;50.920;3.456;2022-09-09T03:20:41;100385.47;;;17.10;97.77
55113;BME280;41006;50.920;3.456;2022-09-09T03:21:12;100378.63;;;17.03;97.81
55113;BME280;41006;50.920;3.456;2022-09-09T03:21:46;100379.00;;;17.14;97.78
55113;BME280;41006;50.920;3.456;2022-09-09T03:22:19;100381.88;;;17.10;97.59
55113;BME280;41006;50.920;3.456;2022-09-09T03:22:49;100373.69;;;17.13;97.80
55113;BME280;41006;50.920;3.456;2022-09-09T03:23:20;100374.41;;;17.16;97.44
55113;BME280;41006;50.920;3.456;2022-09-09T03:23:51;100380.38;;;17.04;97.67
55113;BME280;41006;50.920;3.456;2022-09-09T03:24:24;100374.56;;;17.13;97.74
55113;BME280;41006;50.920;3.456;2022-09-09T03:24:54;100380.34;;;17.23;97.25
55113;BME280;41006;50.920;3.456;2022-09-09T03:25:25;100378.84;;;17.17;97.23
55113;BME280;41006;50.920;3.456;2022-09-09T03:25:58;100375.72;;;17.08;97.64
55113;BME280;41006;50.920;3.456;2022-09-09T03:26:31;100374.88;;;17.07;98.04
55113;BME280;41006;50.920;3.456;2022-09-09T03:27:04;100373.69;;;17.13;97.68
55113;BME280;41006;50.920;3.456;2022-09-09T03:27:34;100367.41;;;17.14;97.68
55113;BME280;41006;50.920;3.456;2022-09-09T03:28:05;100369.56;;;17.25;97.68
55113;BME280;41006;50.920;3.456;2022-09-09T03:28:38;100376.03;;;17.20;97.30
55113;BME280;41006;50.920;3.456;2022-09-09T03:29:08;100379.97;;;17.31;97.00
55113;BME280;41006;50.920;3.456;2022-09-09T03:29:42;100377.47;;;17.09;96.94
55113;BME280;41006;50.920;3.456;2022-09-09T03:30:12;100382.84;;;17.09;97.30
55113;BME280;41006;50.920;3.456;2022-09-09T03:30:43;100368.63;;;17.07;97.69
55113;BME280;41006;50.920;3.456;2022-09-09T03:31:14;100379.63;;;17.19;97.50
55113;BME280;41006;50.920;3.456;2022-09-09T03:31:44;100377.09;;;17.16;97.15
55113;BME280;41006;50.920;3.456;2022-09-09T03:32:14;100382.28;;;17.02;97.53
55113;BME280;41006;50.920;3.456;2022-09-09T03:32:47;100375.44;;;16.95;98.14
55113;BME280;41006;50.920;3.456;2022-09-09T03:33:18;100371.75;;;16.97;98.09
55113;BME280;41006;50.920;3.456;2022-09-09T03:33:48;100371.69;;;16.99;97.89
55113;BME280;41006;50.920;3.456;2022-09-09T03:34:21;100368.03;;;17.00;97.86
55113;BME280;41006;50.920;3.456;2022-09-09T03:34:54;100363.13;;;17.10;97.54
55113;BME280;41006;50.920;3.456;2022-09-09T03:35:27;100363.25;;;17.07;97.35
55113;BME280;41006;50.920;3.456;2022-09-09T03:35:57;100360.50;;;17.08;97.73
55113;BME280;41006;50.920;3.456;2022-09-09T03:36:28;100375.31;;;16.98;97.88
55113;BME280;41006;50.920;3.456;2022-09-09T03:37:03;100359.38;;;16.95;97.94
55113;BME280;41006;50.920;3.456;2022-09-09T03:37:34;100371.56;;;17.02;98.05
55113;BME280;41006;50.920;3.456;2022-09-09T03:38:04;100365.28;;;17.01;98.14